Latest Weather Observations for Esperance Airport

IDW60801

Issued at 5:05 pm WST Tuesday 16 September 2014 (issued every 30 minutes, with the page automatically refreshed every 10 minutes)

About weather observations | Map of weather stations | Latest weather observations for WA | Other Formats
Station Details ID: 009542 Name: ESPERANCE AERO Lat: -33.68 Lon: 121.83 Height: 142.0 m
Data from the previous 72 hours. | See also: Recent months at Esperance Airport
Date/Time
WST
Temp
°C
App
Temp
°C
Dew
Point
Rel
Hum
%
Delta-T
°C
Wind Press
QNH
hPa
Press
MSL
hPa
Rain
since 9 am
mm
Dir
 
Spd
km/h
Gust
km/h
Spd
kts
Gust
kts
16/05:00pm 14.9 10.3 9.7 71 2.7 SE 24 30 13 16 1021.0 1021.0 0.0
16/04:30pm 16.1 12.0 10.2 68 3.1 SSE 22 30 12 16 1020.9 1020.9 0.0
16/04:00pm 16.5 12.3 9.7 64 3.6 SE 22 28 12 15 1020.7 1020.7 0.0
16/03:30pm 17.2 13.4 9.9 62 3.9 SE 20 28 11 15 1020.8 1020.8 0.0
16/03:00pm 17.7 13.7 10.6 63 3.8 SE 22 28 12 15 1020.9 1020.9 0.0
16/02:30pm 17.6 13.5 10.0 61 4.0 SSE 22 28 12 15 1021.3 1021.3 0.0
16/02:00pm 17.7 13.7 10.3 62 4.0 SE 22 30 12 16 1021.4 1021.4 0.0
16/01:30pm 17.8 14.2 9.9 60 4.2 SE 19 24 10 13 1021.4 1021.4 0.0
16/01:00pm 17.9 14.4 8.7 55 4.8 E 17 24 9 13 1021.6 1021.6 0.0
16/12:30pm 18.7 16.8 10.5 59 4.4 SE 11 17 6 9 1021.8 1021.8 0.0
16/12:00pm 18.0 16.2 9.6 58 4.4 E 9 15 5 8 1022.5 1022.5 0.0
16/11:30am 17.0 14.9 8.4 57 4.4 E 9 13 5 7 1023.0 1023.0 0.0
16/11:00am 16.7 15.2 8.4 58 4.2 E 6 13 3 7 1023.5 1023.5 0.0
16/10:30am 16.1 14.8 9.1 63 3.6 E 6 11 3 6 1023.9 1023.8 0.0
16/10:00am 15.0 12.9 8.3 64 3.4 NE 9 15 5 8 1024.2 1024.1 0.0
16/09:30am 15.7 13.2 9.6 67 3.2 NNE 13 19 7 10 1024.4 1024.3 0.0
16/09:00am 15.1 12.4 8.8 66 3.2 ENE 13 20 7 11 1024.4 1024.3 0.0
16/08:30am 14.8 13.1 11.2 79 1.9 NE 11 17 6 9 1024.2 1024.1 0.0
16/08:00am 13.6 11.8 10.8 83 1.5 NE 11 15 6 8 1024.2 1024.1 0.0
16/07:30am 12.0 10.9 10.7 92 0.7 NNE 7 11 4 6 1024.1 1024.0 0.0
16/07:00am 10.8 9.6 10.3 97 0.3 NNE 7 9 4 5 1023.9 1023.8 0.0
16/06:30am 9.0 7.3 8.5 97 0.2 NE 7 9 4 5 1023.4 1023.4 0.0
16/06:00am 8.6 6.5 8.2 97 0.2 NNE 9 13 5 7 1023.3 1023.3 0.0
16/05:30am 8.7 6.6 8.3 97 0.2 NNE 9 11 5 6 1023.2 1023.2 0.0
16/05:00am 8.9 7.2 8.5 97 0.2 NE 7 11 4 6 1023.3 1023.3 0.0
16/04:30am 8.8 6.7 8.4 97 0.2 NE 9 13 5 7 1023.2 1023.2 0.0
16/04:00am 8.5 6.4 8.1 97 0.2 NNE 9 13 5 7 1023.2 1023.2 0.0
16/03:30am 8.7 6.6 8.3 97 0.2 NNE 9 11 5 6 1023.2 1023.2 0.0
16/03:00am 8.5 6.3 7.9 96 0.3 NNE 9 11 5 6 1023.3 1023.3 0.0
16/02:30am 8.9 6.9 8.5 97 0.2 NE 9 11 5 6 1023.2 1023.2 0.0
16/02:00am 8.8 6.7 8.4 97 0.2 NNE 9 11 5 6 1023.5 1023.5 0.0
16/01:30am 9.1 7.5 8.6 97 0.2 NNE 7 9 4 5 1023.9 1023.8 0.0
16/01:00am 7.4 5.5 6.5 94 0.4 NNE 6 9 3 5 1024.0 1023.9 0.0
16/12:30am 10.2 8.8 8.8 91 0.7 NE 6 9 3 5 1024.1 1024.0 0.0
16/12:00am 10.7 8.9 9.3 91 0.7 ENE 9 13 5 7 1024.2 1024.1 0.0
 
Date/Time
WST
Temp
°C
App
Temp
°C
Dew
Point
Rel
Hum
%
Delta-T
°C
Wind Press
QNH
hPa
Press
MSL
hPa
Rain
since 9 am
mm
Dir
 
Spd
km/h
Gust
km/h
Spd
kts
Gust
kts
15/11:30pm 10.1 8.1 8.7 91 0.7 NE 9 13 5 7 1024.1 1024.0 0.0
15/11:00pm 10.3 8.4 9.1 92 0.6 E 9 13 5 7 1024.4 1024.3 0.0
15/10:30pm 10.3 8.0 8.9 91 0.7 E 11 13 6 7 1024.5 1024.4 0.0
15/10:00pm 10.8 8.5 9.1 89 0.8 E 11 15 6 8 1024.7 1024.6 0.0
15/09:30pm 11.0 8.7 9.1 88 1.0 E 11 15 6 8 1025.0 1024.9 0.0
15/09:00pm 10.9 9.0 9.2 89 0.8 E 9 13 5 7 1025.2 1025.1 0.0
15/08:45pm 11.0 8.8 9.3 89 0.9 E 11 13 6 7 1025.2 1025.1 0.0
15/08:30pm 11.2 9.0 9.5 89 0.9 E 11 13 6 7 1025.2 1025.1 0.0
15/08:27pm 11.3 9.2 9.6 89 0.9 E 11 13 6 7 1025.2 1025.1 0.0
15/08:00pm 10.7 8.5 9.3 91 0.7 SE 11 13 6 7 1025.1 1025.0 0.0
15/07:30pm 10.8 8.6 9.4 91 0.7 SSE 11 13 6 7 1025.0 1024.9 0.0
15/07:00pm 10.9 9.1 9.3 90 0.8 SE 9 11 5 6 1024.7 1024.6 0.0
15/06:30pm 11.4 9.3 9.7 89 0.9 SSE 11 13 6 7 1024.4 1024.3 0.0
15/06:00pm 12.1 9.7 10.0 87 1.1 SE 13 17 7 9 1024.2 1024.1 0.0
15/05:30pm 13.3 10.6 10.5 83 1.5 SE 15 20 8 11 1024.0 1023.9 0.0
15/05:00pm 14.3 10.9 10.7 79 1.9 SE 19 24 10 13 1023.6 1023.6 0.0
15/04:30pm 14.9 11.3 10.7 76 2.2 SSE 20 28 11 15 1023.5 1023.5 0.0
15/04:00pm 15.2 12.1 11.6 79 1.9 SE 19 26 10 14 1023.5 1023.5 0.0
15/03:30pm 14.6 11.5 11.6 82 1.6 SSE 19 24 10 13 1023.4 1023.4 0.0
15/03:00pm 14.9 11.9 11.9 82 1.6 S 19 26 10 14 1023.4 1023.4 0.0
15/02:55pm 15.6 12.8 12.5 82 1.7 S 19 22 10 12 1023.4 1023.4 0.0
15/02:30pm 14.4 11.3 11.7 84 1.5 SSE 19 24 10 13 1023.5 1023.5 0.0
15/02:00pm 15.1 12.2 12.8 86 1.3 SSE 20 28 11 15 1023.7 1023.7 0.0
15/01:34pm 15.6 11.8 12.5 82 1.7 S 24 32 13 17 1023.6 1023.6 0.0
15/01:30pm 15.9 11.8 12.6 81 1.8 S 26 32 14 17 1023.6 1023.6 0.0
15/01:20pm 15.2 10.6 12.3 83 1.6 S 28 33 15 18 1023.7 1023.7 0.0
15/01:00pm 14.6 10.1 12.5 87 1.1 S 28 35 15 19 1023.9 1023.8 0.0
15/12:51pm 15.6 11.5 12.7 83 1.6 S 26 33 14 18 1023.7 1023.7 0.0
15/12:30pm 15.8 11.8 13.1 84 1.5 S 26 35 14 19 1023.7 1023.7 0.0
15/12:00pm 17.7 15.3 12.6 72 2.8 WSW 17 22 9 12 1024.0 1023.9 0.0
15/11:30am 17.2 14.8 11.5 69 3.1 WSW 15 20 8 11 1024.3 1024.2 0.0
15/11:00am 17.3 15.1 10.9 66 3.4 W 13 20 7 11 1024.7 1024.6 0.0
15/10:30am 17.5 16.0 10.6 64 3.7 WNW 9 15 5 8 1024.8 1024.7 0.0
15/10:00am 16.8 15.2 10.2 65 3.5 W 9 17 5 9 1025.1 1025.0 0.0
15/09:30am 15.3 12.4 8.3 63 3.6 WNW 13 17 7 9 1025.2 1025.1 0.0
15/09:00am 15.2 12.7 9.6 69 2.9 NW 13 15 7 8 1025.5 1025.4 0.0
15/08:30am 13.5 11.0 8.4 71 2.6 NNW 11 13 6 7 1025.6 1025.6 0.0
15/08:00am 12.3 10.1 9.3 82 1.5 NNW 11 15 6 8 1025.4 1025.3 0.0
15/07:30am 10.9 8.7 9.3 90 0.8 NW 11 13 6 7 1025.3 1025.2 0.0
15/07:00am 9.1 6.5 7.9 92 0.6 NNW 11 15 6 8 1025.1 1025.0 0.0
15/06:30am 6.8 3.9 6.5 98 0.1 N 11 13 6 7 1024.9 1024.8 0.0
15/06:00am 6.6 3.7 6.5 99 0.0 NNW 11 13 6 7 1024.9 1024.8 0.0
15/05:30am 4.6 1.3 4.5 99 0.0 NNW 11 13 6 7 1024.7 1024.6 0.0
15/05:00am 4.8 1.9 4.5 98 0.1 NNW 9 11 5 6 1024.4 1024.3 0.0
15/04:30am 5.8 2.7 5.4 97 0.2 N 11 13 6 7 1024.1 1024.0 0.0
15/04:00am 6.2 3.2 5.8 97 0.2 N 11 13 6 7 1023.6 1023.6 0.0
15/03:30am 6.9 3.6 6.6 98 0.1 N 13 15 7 8 1023.5 1023.5 0.0
15/03:00am 6.2 2.8 5.9 98 0.1 N 13 15 7 8 1023.6 1023.6 0.0
15/02:30am 6.2 3.2 5.9 98 0.1 N 11 13 6 7 1023.7 1023.7 0.0
15/02:00am 6.4 3.0 6.0 97 0.2 N 13 15 7 8 1023.7 1023.7 0.0
15/01:30am 6.6 3.6 6.0 96 0.3 N 11 13 6 7 1023.6 1023.6 0.0
15/01:00am 6.9 3.9 6.0 94 0.4 N 11 17 6 9 1023.6 1023.6 0.0
15/12:30am 8.2 5.4 7.0 92 0.6 NNE 11 15 6 8 1023.9 1023.8 0.0
15/12:00am 8.7 5.7 7.6 93 0.5 NNE 13 15 7 8 1023.9 1023.8 0.0
 
Date/Time
WST
Temp
°C
App
Temp
°C
Dew
Point
Rel
Hum
%
Delta-T
°C
Wind Press
QNH
hPa
Press
MSL
hPa
Rain
since 9 am
mm
Dir
 
Spd
km/h
Gust
km/h
Spd
kts
Gust
kts
14/11:30pm 9.2 6.9 7.5 89 0.8 NNE 9 11 5 6 1023.7 1023.7 0.0
14/11:00pm 8.8 6.5 7.3 90 0.7 NNE 9 13 5 7 1023.7 1023.7 0.0
14/10:30pm 9.3 7.3 6.9 85 1.1 NE 7 11 4 6 1023.9 1023.8 0.0
14/10:00pm 10.2 8.0 7.8 85 1.2 NE 9 13 5 7 1024.1 1024.0 0.0
14/09:30pm 11.1 9.4 8.5 84 1.3 ENE 7 11 4 6 1024.4 1024.3 0.0
14/09:00pm 11.6 9.2 8.6 82 1.5 E 11 13 6 7 1024.4 1024.3 0.0
14/08:30pm 11.8 9.5 9.0 83 1.4 E 11 13 6 7 1024.4 1024.3 0.0
14/08:00pm 11.8 9.5 9.0 83 1.4 E 11 15 6 8 1024.1 1024.0 0.0
14/07:30pm 11.9 9.7 9.5 85 1.2 E 11 13 6 7 1024.0 1023.9 0.0
14/07:00pm 11.1 9.1 8.5 84 1.3 ENE 9 11 5 6 1023.6 1023.6 0.0
14/06:30pm 12.7 10.6 9.7 82 1.5 E 11 13 6 7 1023.3 1023.3 0.0
14/06:00pm 12.9 10.7 9.5 80 1.7 ESE 11 13 6 7 1023.1 1023.1 0.0
14/05:30pm 14.1 12.3 9.3 73 2.5 SE 9 11 5 6 1023.0 1023.0 0.0
14/05:00pm 15.5 13.0 9.8 69 3.0 SSE 13 17 7 9 1022.8 1022.8 0.0
14/04:30pm 16.1 12.8 9.5 65 3.5 SSE 17 20 9 11 1022.6 1022.6 0.0
14/04:00pm 17.0 14.0 9.4 61 4.0 S 15 19 8 10 1022.3 1022.3 0.0
14/03:30pm 17.7 14.0 9.6 59 4.3 S 19 26 10 14 1022.1 1022.1 0.0
14/03:00pm 18.4 14.7 7.8 50 5.4 S 17 19 9 10 1021.8 1021.8 0.0
14/02:30pm 18.5 15.5 9.3 55 4.9 S 15 22 8 12 1021.6 1021.6 0.0
14/02:00pm 19.0 16.2 8.6 51 5.4 SW 13 20 7 11 1021.6 1021.6 0.0
14/01:30pm 18.7 15.4 6.5 45 6.1 SSW 13 20 7 11 1021.7 1021.7 0.0
14/01:00pm 18.8 15.2 6.6 45 6.1 WSW 15 26 8 14 1021.7 1021.7 0.0
14/12:30pm 18.7 15.8 8.1 50 5.5 SW 13 20 7 11 1021.8 1021.8 0.0
14/12:00pm 18.2 15.0 8.5 53 5.0 S 15 20 8 11 1022.1 1022.1 0.0
14/11:30am 17.5 14.1 7.5 52 5.1 SW 15 24 8 13 1022.3 1022.3 0.0
14/11:00am 17.1 14.7 8.8 58 4.3 SSW 11 22 6 12 1022.5 1022.5 0.0
14/10:30am 16.7 13.1 8.4 58 4.3 SSW 17 26 9 14 1022.8 1022.8 0.0
14/10:00am 16.1 12.5 8.3 60 4.0 SW 17 24 9 13 1022.9 1022.9 0.0
14/09:30am 15.9 12.3 9.8 67 3.2 SW 19 32 10 17 1022.8 1022.8 0.0
14/09:00am 14.8 11.9 9.6 71 2.7 WSW 15 20 8 11 1022.8 1022.8 0.0
14/08:30am 14.3 12.5 10.9 80 1.8 W 11 17 6 9 1022.9 1022.9 0.0
14/08:00am 12.0 10.0 10.2 89 0.9 W 11 15 6 8 1022.8 1022.8 0.0
14/07:30am 10.6 8.4 9.5 93 0.6 W 11 13 6 7 1022.5 1022.5 0.0
14/07:00am 8.4 6.2 7.8 96 0.3 NW 9 13 5 7 1022.4 1022.4 0.0
14/06:30am 6.8 3.9 6.4 97 0.2 NW 11 13 6 7 1021.9 1021.9 0.0
14/06:00am 5.9 3.2 5.5 97 0.2 NNW 9 11 5 6 1021.5 1021.5 0.0
14/05:30am 6.6 4.4 6.0 96 0.3 NW 7 9 4 5 1021.1 1021.1 0.0
14/05:00am 7.3 4.8 6.7 96 0.3 NW 9 13 5 7 1020.9 1020.9 0.0
14/04:30am 6.2 3.9 5.6 96 0.3 WNW 7 11 4 6 1020.7 1020.7 0.0
14/04:00am 7.6 5.6 7.0 96 0.3 W 7 9 4 5 1020.2 1020.2 0.0
14/03:30am 6.8 4.2 6.2 96 0.3 W 9 13 5 7 1020.2 1020.2 0.0
14/03:00am 7.1 4.6 6.4 95 0.3 WNW 9 11 5 6 1020.1 1020.1 0.0
14/02:30am 6.6 4.0 6.0 96 0.3 WNW 9 11 5 6 1020.2 1020.2 0.0
14/02:00am 7.3 5.2 6.7 96 0.3 W 7 11 4 6 1020.4 1020.4 0.0
14/01:30am 7.1 4.2 6.4 95 0.3 W 11 13 6 7 1020.7 1020.7 0.0
14/01:00am 6.8 4.2 6.2 96 0.3 WNW 9 13 5 7 1021.1 1021.1 0.0
14/12:30am 7.1 3.8 6.4 95 0.3 W 13 13 7 7 1021.3 1021.3 0.0
14/12:00am 7.7 4.5 6.8 94 0.4 W 13 15 7 8 1021.3 1021.3 0.0
 
Date/Time
WST
Temp
°C
App
Temp
°C
Dew
Point
Rel
Hum
%
Delta-T
°C
Wind Press
QNH
hPa
Press
MSL
hPa
Rain
since 9 am
mm
Dir
 
Spd
km/h
Gust
km/h
Spd
kts
Gust
kts
13/11:30pm 8.2 5.9 7.3 94 0.4 W 9 13 5 7 1021.3 1021.3 0.0
13/11:00pm 8.2 5.8 7.1 93 0.5 W 9 11 5 6 1021.4 1021.4 0.0
13/10:30pm 9.3 5.9 7.7 90 0.8 WSW 15 17 8 9 1021.4 1021.4 0.0
13/10:00pm 10.0 7.5 8.1 88 0.9 WSW 11 13 6 7 1021.7 1021.7 0.0
13/09:30pm 10.8 8.0 8.4 85 1.2 WSW 13 15 7 8 1021.8 1021.8 0.0
13/09:00pm 12.1 9.4 8.8 80 1.7 WSW 13 22 7 12 1022.0 1022.0 0.0
13/08:30pm 11.8 9.1 9.0 83 1.4 SW 13 17 7 9 1021.9 1021.9 0.0
13/08:00pm 12.4 8.9 8.7 78 1.9 SW 17 20 9 11 1021.8 1021.8 0.0
13/07:30pm 12.7 9.4 9.7 82 1.5 SW 17 22 9 12 1021.6 1021.6 0.0
13/07:00pm 12.4 9.2 10.0 85 1.2 SW 17 22 9 12 1021.4 1021.4 0.0
13/06:30pm 13.0 10.1 10.9 87 1.1 SW 17 20 9 11 1021.1 1021.1 0.0
13/06:00pm 13.2 9.8 10.6 84 1.4 SW 19 28 10 15 1020.5 1020.5 0.0
13/05:30pm 14.2 9.5 10.6 79 1.9 SW 26 35 14 19 1020.2 1020.2 0.0

Other Formats:

Comma delimited format used in spreadsheet applications
http://www.bom.gov.au/fwo/IDW60801/IDW60801.95638.axf

JavaScript Object Notation format (JSON) in row-major order
http://www.bom.gov.au/fwo/IDW60801/IDW60801.95638.json